Baltimore, Maryland
Current Conditions -  °F | °C
As of 7:54 AM on Monday 22 Dec 2014 (Local Time) from KBWI Reporting Station
Haze Haze  
Wind Chill: 31°   Ceiling: 4200
Heat Index: 31°   Visibility: 6mi
Dew Point: 25°   Wind: 3mph
Humidity: 79%   Direction: 20°NNE
Pressure: 30.3"   Gusts: NA
Location:  39.29°N, 76.61°W
Report Text: KBWI 221254Z 02003KT 6SM HZ OVC042 M01/M04 A3030 RMK AO2 SLP260 T10061039
Loading
Personal Weather Stations






























Interactive Weather Map New forecast layout! Learn more

10-Day Weather Forecast

Advertisements
Track Severe Weather on mobile